Time;durP1;ratioP1;P1;durP2;ratioP2;P2;SDS_P1;SDS_P2;PMS_P1;PMS_P2;Temp;Humidity;BMP_temperature;BMP_pressure;BME280_temperature;BME280_humidity;BME280_pressure;Samples;Min_cycle;Max_cycle;Signal;HPM_P1;HPM_P2
2023/06/15 00:01:32;;;;;;;2.80;2.60;;;26.40;37.10;26.90;100994.00;;;;5031385;28;20666;-45
2023/06/15 00:04:00;;;;;;;3.78;2.65;;;26.40;37.00;26.90;100990.00;;;;5030998;28;20180;-44
2023/06/15 00:06:27;;;;;;;3.00;2.70;;;26.40;37.00;26.80;100990.00;;;;5030737;28;20270;-45
2023/06/15 00:08:55;;;;;;;4.43;2.95;;;26.30;37.00;26.80;100990.00;;;;5031232;28;20197;-46
2023/06/15 00:11:20;;;;;;;2.60;2.40;;;26.30;37.00;26.80;100991.00;;;;5031066;28;20228;-44
2023/06/15 00:13:46;;;;;;;2.78;2.58;;;26.30;37.00;26.80;100990.00;;;;5030616;28;20576;-45
2023/06/15 00:16:14;;;;;;;3.30;2.60;;;26.30;37.00;26.70;100998.00;;;;5030190;28;20201;-44
2023/06/15 00:18:40;;;;;;;2.85;2.63;;;26.20;37.10;26.70;100992.00;;;;5030956;28;20175;-45
2023/06/15 00:21:08;;;;;;;3.10;2.72;;;26.20;37.20;26.70;100989.00;;;;5029672;28;20170;-45
2023/06/15 00:23:34;;;;;;;2.70;2.50;;;26.20;37.30;26.70;100993.00;;;;5030702;28;20224;-45
2023/06/15 00:25:59;;;;;;;3.10;2.78;;;26.20;37.40;26.60;100988.00;;;;5030445;28;20669;-45
2023/06/15 00:31:28;;;;;;;3.03;2.70;;;26.20;37.30;26.60;100999.00;;;;5030932;28;20265;-46
2023/06/15 00:33:54;;;;;;;3.35;2.70;;;26.10;37.30;26.50;100998.00;;;;5030820;28;20713;-46
2023/06/15 00:36:26;;;;;;;2.95;2.70;;;26.10;37.30;26.50;100999.00;;;;5067249;28;20618;-46
2023/06/15 00:38:52;;;;;;;2.83;2.63;;;26.10;37.40;26.50;101003.00;;;;5047393;28;20175;-46
2023/06/15 00:41:18;;;;;;;2.78;2.58;;;26.00;37.40;26.50;101012.00;;;;5047424;28;20706;-47
2023/06/15 00:43:43;;;;;;;3.10;2.80;;;26.10;37.60;26.40;101000.00;;;;5047158;28;20170;-46
2023/06/15 00:46:09;;;;;;;3.53;2.83;;;26.00;37.50;26.40;101004.00;;;;5059480;28;20197;-46
2023/06/15 00:48:36;;;;;;;2.83;2.63;;;26.00;37.60;26.40;100999.00;;;;5052963;28;20174;-46
2023/06/15 00:51:02;;;;;;;2.80;2.60;;;26.00;37.70;26.30;101002.00;;;;5047096;28;20174;-46
2023/06/15 00:53:28;;;;;;;3.08;2.83;;;26.00;37.70;26.30;101005.00;;;;5047876;28;20173;-46
2023/06/15 00:55:54;;;;;;;3.13;2.80;;;25.90;37.60;26.30;101007.00;;;;5047543;28;20568;-45
2023/06/15 00:58:20;;;;;;;3.78;2.92;;;25.90;37.70;26.30;101004.00;;;;5047786;28;20186;-45
2023/06/15 01:00:48;;;;;;;3.38;2.90;;;25.90;37.70;26.20;101006.00;;;;5049931;28;20167;-46
2023/06/15 01:03:20;;;;;;;2.78;2.58;;;25.90;37.80;26.20;101011.00;;;;5046486;28;20177;-46
2023/06/15 01:05:53;;;;;;;3.03;2.80;;;25.80;37.80;26.20;101011.00;;;;5047586;28;20692;-46
2023/06/15 01:08:20;;;;;;;2.90;2.70;;;25.80;37.90;26.20;101009.00;;;;5046778;28;20182;-45
2023/06/15 01:10:46;;;;;;;3.35;2.80;;;25.80;38.00;26.20;101007.00;;;;5048189;28;20217;-45
2023/06/15 01:13:12;;;;;;;2.85;2.65;;;25.80;38.00;26.10;101018.00;;;;5050289;28;20174;-45
2023/06/15 01:15:40;;;;;;;3.28;2.97;;;25.80;38.00;26.10;101007.00;;;;5048207;28;20244;-47
2023/06/15 01:18:06;;;;;;;3.47;2.78;;;25.70;38.00;26.10;101005.00;;;;5045639;28;20174;-46
2023/06/15 01:20:40;;;;;;;3.22;2.90;;;25.70;38.00;26.00;101005.00;;;;5029041;28;20718;-45
2023/06/15 01:23:21;;;;;;;3.03;2.80;;;25.70;38.10;26.00;101004.00;;;;5047023;28;20169;-46
2023/06/15 01:25:49;;;;;;;3.03;2.70;;;25.70;38.10;26.00;101011.00;;;;5046297;28;20198;-46
2023/06/15 01:28:20;;;;;;;2.88;2.67;;;25.70;38.20;26.00;100951.00;;;;5046670;28;20186;-46
2023/06/15 01:30:48;;;;;;;3.28;2.97;;;25.70;38.20;25.90;101014.00;;;;5045021;28;20656;-45
2023/06/15 01:33:15;;;;;;;3.13;2.90;;;25.60;38.30;25.90;101017.00;;;;5045004;28;20179;-45
2023/06/15 01:35:41;;;;;;;2.90;2.65;;;25.60;38.30;25.90;101009.00;;;;5045791;28;20194;-45
2023/06/15 01:38:06;;;;;;;3.22;2.80;;;25.50;38.60;25.90;101007.00;;;;5046164;28;20178;-46
2023/06/15 01:40:35;;;;;;;3.10;2.90;;;25.60;38.40;25.80;101006.00;;;;5046078;28;20167;-47
2023/06/15 01:43:00;;;;;;;2.88;2.67;;;25.50;38.40;25.80;101011.00;;;;5044985;28;20174;-46
2023/06/15 01:45:26;;;;;;;3.03;2.80;;;25.50;38.50;25.80;101014.00;;;;5044449;28;20195;-47
2023/06/15 01:47:52;;;;;;;4.07;3.05;;;25.50;38.50;25.80;101008.00;;;;5030774;28;20252;-46
2023/06/15 01:50:18;;;;;;;3.17;2.60;;;25.50;38.60;25.80;101013.00;;;;5031005;28;20211;-46
2023/06/15 01:52:44;;;;;;;3.10;2.70;;;25.50;38.70;25.50;101013.00;;;;5031295;28;20179;-45
2023/06/15 01:55:10;;;;;;;2.90;2.70;;;25.40;38.70;25.70;101023.00;;;;5030809;28;20705;-46
2023/06/15 01:57:37;;;;;;;3.00;2.80;;;25.50;38.80;25.70;101008.00;;;;5031355;28;20232;-46
2023/06/15 02:00:06;;;;;;;2.70;2.50;;;25.40;38.70;25.70;101012.00;;;;5032196;28;20224;-50
2023/06/15 02:02:32;;;;;;;2.80;2.60;;;25.40;38.80;25.70;101016.00;;;;5032172;28;20171;-46
2023/06/15 02:04:57;;;;;;;3.10;2.80;;;25.40;39.00;25.60;101021.00;;;;5031425;28;20501;-45
2023/06/15 02:07:23;;;;;;;3.10;2.78;;;25.40;39.00;25.60;101013.00;;;;5032120;28;20249;-46
2023/06/15 02:09:49;;;;;;;3.20;2.90;;;25.40;39.00;25.50;101009.00;;;;5032326;28;20550;-47
2023/06/15 02:12:15;;;;;;;4.68;2.90;;;25.30;38.90;25.50;101019.00;;;;5032510;28;20171;-46
2023/06/15 02:14:40;;;;;;;3.00;2.70;;;25.20;38.80;25.50;101020.00;;;;5031832;28;20190;-46
2023/06/15 02:17:06;;;;;;;3.80;2.95;;;25.20;38.90;25.40;101015.00;;;;5032350;28;20542;-46
2023/06/15 02:19:32;;;;;;;3.38;2.80;;;25.20;39.00;25.30;101019.00;;;;5032274;28;20254;-44
2023/06/15 02:21:58;;;;;;;3.10;2.90;;;25.10;39.10;25.30;100968.00;;;;5032239;28;20598;-45
2023/06/15 02:24:24;;;;;;;3.25;2.95;;;25.10;39.20;25.20;101019.00;;;;5031934;28;20171;-45
2023/06/15 02:26:49;;;;;;;3.83;2.90;;;25.00;39.20;25.20;101026.00;;;;5030519;28;20222;-44
2023/06/15 02:29:15;;;;;;;3.10;2.80;;;25.00;39.30;25.20;101022.00;;;;5031746;28;20202;-45
2023/06/15 02:31:41;;;;;;;3.10;2.90;;;25.00;39.40;25.20;101016.00;;;;5031415;28;20202;-47
2023/06/15 02:34:07;;;;;;;2.88;2.67;;;25.00;39.40;25.20;101024.00;;;;5031348;28;20175;-45
2023/06/15 02:36:34;;;;;;;3.30;3.00;;;25.00;39.40;25.20;101022.00;;;;5031343;28;20544;-44
2023/06/15 02:39:01;;;;;;;3.20;2.80;;;25.00;39.40;25.10;101020.00;;;;5031648;28;20167;-47
2023/06/15 02:41:26;;;;;;;4.72;3.15;;;25.00;39.50;25.10;101024.00;;;;5031737;28;20175;-45
2023/06/15 02:43:52;;;;;;;3.35;3.05;;;25.00;39.50;25.10;101023.00;;;;5031530;28;20171;-45
2023/06/15 02:46:18;;;;;;;3.05;2.85;;;24.90;39.40;25.10;101023.00;;;;5031152;28;20191;-46
2023/06/15 02:48:44;;;;;;;3.30;3.00;;;24.90;39.50;25.10;101021.00;;;;5031338;28;20171;-45
2023/06/15 02:51:10;;;;;;;3.92;3.20;;;24.90;39.50;25.00;101022.00;;;;5036368;28;20257;-46
2023/06/15 02:53:36;;;;;;;4.10;3.17;;;24.90;39.50;25.00;101032.00;;;;5043470;28;20641;-45
2023/06/15 02:56:03;;;;;;;3.38;3.08;;;24.90;39.50;25.00;101030.00;;;;5031300;28;20203;-45
2023/06/15 02:58:32;;;;;;;4.03;3.30;;;24.80;39.50;25.00;101021.00;;;;5039962;28;20641;-45
2023/06/15 03:01:00;;;;;;;3.73;3.23;;;24.80;39.50;25.00;101017.00;;;;5041258;28;20700;-47
2023/06/15 03:03:27;;;;;;;3.53;3.23;;;24.80;39.50;25.00;101013.00;;;;5031550;28;20167;-46
2023/06/15 03:05:54;;;;;;;4.30;3.07;;;24.80;39.60;25.00;101024.00;;;;5031549;28;20195;-46
2023/06/15 03:08:23;;;;;;;4.07;3.10;;;24.80;39.60;24.90;101022.00;;;;5032679;28;20197;-46
2023/06/15 03:10:54;;;;;;;3.70;3.20;;;24.70;39.60;24.90;101023.00;;;;5032038;28;20752;-46
2023/06/15 03:13:20;;;;;;;5.23;3.30;;;24.70;39.60;24.90;101027.00;;;;5040469;28;20167;-45
2023/06/15 03:15:48;;;;;;;5.05;3.10;;;24.70;39.60;24.90;101025.00;;;;5033933;28;20205;-44
2023/06/15 03:18:14;;;;;;;3.50;3.20;;;24.70;39.70;24.90;101019.00;;;;5032174;28;20205;-45
2023/06/15 03:20:43;;;;;;;3.30;3.00;;;24.70;39.70;24.80;101022.00;;;;5031470;28;20214;-45
2023/06/15 03:23:12;;;;;;;3.40;3.10;;;24.70;39.70;24.80;101030.00;;;;5031203;28;20174;-46
2023/06/15 03:25:38;;;;;;;4.97;3.10;;;24.70;39.70;24.80;101025.00;;;;5030753;28;20198;-45
2023/06/15 03:28:04;;;;;;;4.10;3.13;;;24.70;39.80;24.80;101024.00;;;;5030613;28;20186;-46
2023/06/15 03:30:30;;;;;;;6.03;3.27;;;24.70;39.80;24.70;101022.00;;;;5030627;28;20272;-45
2023/06/15 03:32:56;;;;;;;3.50;3.20;;;24.60;40.40;24.70;101039.00;;;;5030653;28;20170;-46
2023/06/15 03:35:21;;;;;;;3.70;3.40;;;24.60;40.30;24.70;101040.00;;;;5030362;28;20206;-46
2023/06/15 03:37:47;;;;;;;3.53;3.23;;;24.60;40.30;24.70;101034.00;;;;5031103;28;20549;-44
2023/06/15 03:40:13;;;;;;;3.43;3.13;;;24.50;40.10;24.60;101033.00;;;;5031941;28;20171;-46
2023/06/15 03:42:40;;;;;;;3.77;3.37;;;24.50;40.10;24.60;101026.00;;;;5023588;28;20580;-46
2023/06/15 03:45:06;;;;;;;3.73;3.40;;;24.50;40.10;24.60;101030.00;;;;5021351;28;20210;-46
2023/06/15 03:47:32;;;;;;;3.67;3.37;;;24.50;40.00;24.60;101036.00;;;;5029908;28;20224;-45
2023/06/15 03:49:58;;;;;;;3.78;3.47;;;24.40;39.90;24.60;101033.00;;;;5029716;28;20170;-46
2023/06/15 03:52:25;;;;;;;4.60;3.30;;;24.40;39.90;24.50;101010.00;;;;5029843;28;20179;-46
2023/06/15 03:54:51;;;;;;;3.47;3.17;;;24.40;39.90;24.50;101035.00;;;;5044310;28;20194;-46
2023/06/15 03:57:17;;;;;;;3.47;3.10;;;24.40;40.00;24.50;101043.00;;;;5029082;28;20179;-45
2023/06/15 03:59:43;;;;;;;3.40;3.10;;;24.40;40.00;24.50;101040.00;;;;5029786;28;20251;-46
2023/06/15 04:02:08;;;;;;;3.20;3.00;;;24.40;40.00;24.50;101045.00;;;;5029779;28;20171;-46
2023/06/15 04:04:34;;;;;;;3.50;3.13;;;24.40;40.20;24.50;101041.00;;;;5028399;28;20174;-45
2023/06/15 04:07:00;;;;;;;4.07;3.17;;;24.40;40.40;24.50;101047.00;;;;5029157;28;20577;-47
2023/06/15 04:09:27;;;;;;;3.97;3.50;;;24.50;41.00;24.50;101047.00;;;;5028930;28;20182;-46
2023/06/15 04:11:52;;;;;;;3.67;3.33;;;24.50;41.30;24.50;101051.00;;;;5029282;28;20201;-45
2023/06/15 04:14:18;;;;;;;3.23;2.93;;;24.50;42.10;24.50;101048.00;;;;5029192;28;20655;-45
2023/06/15 04:16:44;;;;;;;4.07;3.20;;;24.40;41.40;24.50;101046.00;;;;5029260;28;20244;-45
2023/06/15 04:19:10;;;;;;;3.60;3.30;;;24.40;41.70;24.50;101053.00;;;;5029071;28;20171;-46
2023/06/15 04:21:36;;;;;;;4.17;2.90;;;24.40;41.60;24.50;101042.00;;;;5044760;28;20672;-45
2023/06/15 04:24:03;;;;;;;3.80;3.50;;;24.40;41.70;24.40;101052.00;;;;5044344;28;20653;-46
2023/06/15 04:26:29;;;;;;;3.30;3.00;;;24.40;42.50;24.40;101046.00;;;;5028288;28;20222;-44
2023/06/15 04:28:57;;;;;;;3.90;3.17;;;24.40;41.80;24.40;101061.00;;;;5028676;28;20171;-44
2023/06/15 04:31:24;;;;;;;4.00;3.40;;;24.30;41.80;24.40;101067.00;;;;5029210;28;20179;-46
2023/06/15 04:33:50;;;;;;;3.53;3.23;;;24.30;41.80;24.40;101064.00;;;;5028866;28;20175;-45
2023/06/15 04:36:16;;;;;;;4.47;3.40;;;24.30;42.00;24.40;101063.00;;;;5028233;28;20229;-46
2023/06/15 04:38:49;;;;;;;3.37;3.10;;;24.30;42.10;24.30;101063.00;;;;5028584;28;20167;-46
2023/06/15 04:41:16;;;;;;;5.03;3.43;;;24.30;42.20;24.30;101067.00;;;;5028869;28;20182;-46
2023/06/15 04:43:42;;;;;;;5.00;3.40;;;24.20;42.30;24.20;101067.00;;;;5035202;28;20166;-46
2023/06/15 04:46:08;;;;;;;3.53;3.20;;;24.30;42.40;24.20;101079.00;;;;5038863;28;20194;-45
2023/06/15 04:48:35;;;;;;;4.50;3.30;;;24.20;42.20;24.20;101070.00;;;;5039236;28;20179;-49
2023/06/15 04:51:00;;;;;;;3.17;2.97;;;24.20;42.20;24.20;101072.00;;;;5029183;28;20257;-45
2023/06/15 04:53:26;;;;;;;3.10;2.90;;;24.20;42.10;24.20;101076.00;;;;5029116;28;20533;-44
2023/06/15 04:55:52;;;;;;;5.00;3.10;;;24.20;42.40;24.20;101083.00;;;;5028951;28;20203;-45
2023/06/15 04:58:18;;;;;;;3.30;3.00;;;24.10;42.40;24.20;101086.00;;;;5030802;28;20174;-46
2023/06/15 05:00:44;;;;;;;3.40;3.10;;;24.10;42.60;24.20;101077.00;;;;5031454;28;20549;-46
2023/06/15 05:03:11;;;;;;;4.33;3.30;;;24.10;42.60;24.10;101069.00;;;;5030987;28;20865;-46
2023/06/15 05:05:36;;;;;;;3.40;3.10;;;24.10;42.70;24.20;101081.00;;;;5030728;28;20283;-46
2023/06/15 05:08:02;;;;;;;6.87;6.27;;;24.10;42.90;24.10;101082.00;;;;5030612;28;20179;-46
2023/06/15 05:10:28;;;;;;;9.77;8.87;;;24.10;43.10;24.10;101085.00;;;;5032694;28;20172;-50
2023/06/15 05:12:54;;;;;;;7.10;6.50;;;24.10;43.10;24.10;101090.00;;;;5051315;28;20182;-46
2023/06/15 05:15:20;;;;;;;5.67;5.23;;;24.10;43.20;24.10;101087.00;;;;5032816;28;20214;-45
2023/06/15 05:17:46;;;;;;;5.10;4.70;;;24.10;43.20;23.90;101093.00;;;;5030473;28;20645;-46
2023/06/15 05:20:13;;;;;;;4.70;4.30;;;24.10;43.30;24.10;101094.00;;;;5029567;28;20167;-46
2023/06/15 05:22:39;;;;;;;4.67;4.10;;;24.10;43.30;24.20;101088.00;;;;5032075;28;20183;-46
2023/06/15 05:25:06;;;;;;;4.20;3.80;;;24.10;43.40;24.20;101092.00;;;;5032842;28;20202;-46
2023/06/15 05:27:35;;;;;;;4.20;3.80;;;24.10;43.60;24.20;101106.00;;;;5032629;28;20298;-46
2023/06/15 05:30:01;;;;;;;4.00;3.70;;;24.10;43.40;24.20;101081.00;;;;5032809;28;20665;-47
2023/06/15 05:32:27;;;;;;;3.83;3.30;;;24.10;43.00;24.10;101093.00;;;;5048084;28;20532;-46
2023/06/15 05:34:53;;;;;;;4.03;3.70;;;24.10;42.90;24.10;101095.00;;;;5032137;28;20198;-45
2023/06/15 05:37:18;;;;;;;5.20;4.20;;;24.10;43.00;24.10;101101.00;;;;5032417;28;20174;-45
2023/06/15 05:39:46;;;;;;;5.03;3.90;;;24.00;43.20;24.10;101095.00;;;;5032452;28;20167;-46
2023/06/15 05:42:11;;;;;;;3.93;3.63;;;24.10;43.40;24.10;101102.00;;;;5032382;28;20548;-46
2023/06/15 05:44:37;;;;;;;12.17;4.20;;;24.10;43.70;24.10;101114.00;;;;5031994;28;20167;-46
2023/06/15 05:47:03;;;;;;;4.23;3.83;;;24.10;43.10;24.10;101104.00;;;;5032405;28;20230;-45
2023/06/15 05:49:29;;;;;;;4.40;4.00;;;24.10;42.70;24.10;101110.00;;;;5032146;28;20171;-45
2023/06/15 05:51:55;;;;;;;4.40;3.80;;;24.00;42.50;24.10;101102.00;;;;5032276;28;20285;-47
2023/06/15 05:54:21;;;;;;;4.23;3.70;;;24.00;42.40;24.10;101112.00;;;;5032049;28;20167;-45
2023/06/15 05:56:46;;;;;;;3.90;3.50;;;24.00;42.30;24.10;101103.00;;;;5031960;28;20814;-46
2023/06/15 05:59:13;;;;;;;4.23;3.83;;;24.00;42.60;24.10;101104.00;;;;5047863;28;20167;-47
2023/06/15 06:01:39;;;;;;;5.80;3.97;;;24.10;42.80;24.10;101112.00;;;;5033773;28;20225;-46
2023/06/15 06:04:05;;;;;;;4.63;3.93;;;24.10;42.80;24.10;101112.00;;;;5032907;28;20174;-47
2023/06/15 06:06:30;;;;;;;3.90;3.60;;;24.10;42.60;24.10;101092.00;;;;5047365;28;20198;-46
2023/06/15 06:08:56;;;;;;;4.43;3.60;;;24.10;42.60;24.10;101115.00;;;;5032120;28;20182;-46
2023/06/15 06:11:22;;;;;;;3.70;3.40;;;24.10;42.70;24.10;101046.00;;;;5032182;28;20201;-47
2023/06/15 06:13:48;;;;;;;6.17;3.90;;;24.10;42.40;24.00;101114.00;;;;5032304;28;20174;-47
2023/06/15 06:16:14;;;;;;;3.57;3.27;;;24.10;42.40;24.10;101107.00;;;;5031543;28;20207;-45
2023/06/15 06:18:40;;;;;;;3.60;3.30;;;24.10;42.40;24.10;101106.00;;;;5031517;28;20262;-46
2023/06/15 06:21:06;;;;;;;3.93;3.60;;;24.00;42.20;24.10;101100.00;;;;5031839;28;20357;-46
2023/06/15 06:23:32;;;;;;;3.80;3.33;;;24.10;42.40;24.10;101096.00;;;;5031853;28;20174;-45
2023/06/15 06:25:58;;;;;;;3.50;3.20;;;24.10;43.30;24.10;101110.00;;;;5031352;28;20576;-47
2023/06/15 06:28:24;;;;;;;4.20;3.67;;;24.00;42.30;24.10;101105.00;;;;5031346;28;20179;-46
2023/06/15 06:30:50;;;;;;;4.47;3.53;;;24.00;42.30;24.10;101112.00;;;;5031782;28;20179;-44
2023/06/15 06:33:15;;;;;;;4.73;3.40;;;24.00;42.30;24.10;101109.00;;;;5031311;28;20776;-46
2023/06/15 06:35:41;;;;;;;4.13;3.73;;;24.00;42.50;24.10;101107.00;;;;5031206;28;20207;-46
2023/06/15 06:38:07;;;;;;;3.93;3.50;;;24.00;42.40;24.10;101110.00;;;;5031359;28;20353;-46
2023/06/15 06:40:33;;;;;;;3.97;3.50;;;24.00;42.30;24.00;101109.00;;;;5031167;28;21013;-47
2023/06/15 06:42:58;;;;;;;4.27;3.33;;;24.00;42.30;24.10;101118.00;;;;5031398;28;20164;-47
2023/06/15 06:45:24;;;;;;;3.97;3.23;;;24.00;42.40;24.10;101116.00;;;;5031176;28;20189;-45
2023/06/15 06:47:50;;;;;;;7.10;3.90;;;24.00;42.70;24.00;101119.00;;;;5031039;28;20171;-45
2023/06/15 06:50:15;;;;;;;3.70;3.40;;;24.00;42.90;24.10;101122.00;;;;5031059;28;20171;-45
2023/06/15 06:52:44;;;;;;;5.53;3.87;;;24.00;43.00;24.10;101125.00;;;;5046543;28;20182;-46
2023/06/15 06:55:10;;;;;;;4.63;3.80;;;24.00;43.10;24.10;101113.00;;;;5030716;28;20198;-45
2023/06/15 06:57:36;;;;;;;3.80;3.50;;;24.00;43.30;24.10;101111.00;;;;5031166;28;20254;-45
2023/06/15 07:00:03;;;;;;;5.23;3.60;;;24.00;43.50;24.00;101114.00;;;;5043115;28;20194;-47
2023/06/15 07:02:28;;;;;;;3.73;3.43;;;23.90;43.10;24.00;101114.00;;;;5035442;28;20244;-46
2023/06/15 07:04:54;;;;;;;4.90;3.70;;;23.90;43.00;24.00;101115.00;;;;5031755;28;20182;-46
2023/06/15 07:07:20;;;;;;;4.03;3.50;;;23.90;43.00;24.00;101119.00;;;;5047916;28;20175;-46
2023/06/15 07:09:45;;;;;;;3.63;3.33;;;23.90;43.10;24.00;101118.00;;;;5031163;28;20195;-46
2023/06/15 07:12:11;;;;;;;5.60;3.83;;;23.90;43.20;24.00;101125.00;;;;5032869;28;20555;-48
2023/06/15 07:14:37;;;;;;;4.10;3.40;;;23.90;43.20;24.00;101120.00;;;;5039640;28;20191;-47
2023/06/15 07:17:03;;;;;;;3.67;3.37;;;23.90;43.30;24.00;101128.00;;;;5033216;28;20202;-46
2023/06/15 07:19:29;;;;;;;3.90;3.60;;;23.90;43.30;24.00;101118.00;;;;5031711;28;20175;-47
2023/06/15 07:21:54;;;;;;;6.43;3.70;;;23.90;43.40;24.00;101126.00;;;;5030902;28;20565;-46
2023/06/15 07:24:20;;;;;;;4.60;4.20;;;23.90;43.60;24.00;101119.00;;;;5030367;28;20167;-47
2023/06/15 07:26:46;;;;;;;4.43;4.03;;;23.90;43.90;24.00;101115.00;;;;5029861;28;20190;-46
2023/06/15 07:29:12;;;;;;;3.87;3.40;;;23.90;44.40;24.00;101115.00;;;;5029871;28;20174;-48
2023/06/15 07:31:37;;;;;;;3.43;3.13;;;23.90;44.30;24.00;101129.00;;;;5029155;28;20205;-46
2023/06/15 07:34:03;;;;;;;3.77;3.40;;;23.90;44.20;24.00;101123.00;;;;5030667;28;20251;-46
2023/06/15 07:36:29;;;;;;;4.27;3.40;;;23.80;44.00;24.00;101119.00;;;;5029792;28;20587;-48
2023/06/15 07:38:56;;;;;;;3.87;3.57;;;23.80;44.20;24.00;101116.00;;;;5029978;28;20175;-47
2023/06/15 07:41:22;;;;;;;3.77;3.47;;;23.80;44.40;24.00;101117.00;;;;5030097;28;20962;-46
2023/06/15 07:43:47;;;;;;;3.87;3.57;;;23.70;44.50;23.90;101114.00;;;;5030185;28;20221;-46
2023/06/15 07:46:13;;;;;;;4.07;3.63;;;23.80;44.50;23.90;101122.00;;;;5029740;28;20191;-47
2023/06/15 07:48:39;;;;;;;4.77;3.40;;;23.80;44.50;24.00;101118.00;;;;5030027;28;20240;-48
2023/06/15 07:51:05;;;;;;;3.67;3.37;;;23.80;44.40;23.90;101107.00;;;;5030347;28;20240;-44
2023/06/15 07:53:30;;;;;;;4.13;3.80;;;23.70;44.30;23.90;101114.00;;;;5030055;28;20171;-45
2023/06/15 07:55:56;;;;;;;4.67;3.47;;;23.80;44.50;23.90;101119.00;;;;5029715;28;20205;-46
2023/06/15 07:58:22;;;;;;;3.57;3.27;;;23.80;44.40;23.90;101111.00;;;;5028358;28;20194;-46
2023/06/15 08:00:47;;;;;;;3.60;3.10;;;23.70;44.20;23.90;101111.00;;;;5045379;28;20174;-47
2023/06/15 08:03:13;;;;;;;4.30;3.30;;;23.70;44.60;23.90;101111.00;;;;5028817;28;20178;-47
2023/06/15 08:05:39;;;;;;;4.63;3.50;;;23.60;44.70;24.00;101092.00;;;;5044699;28;20276;-46
2023/06/15 08:08:05;;;;;;;4.23;3.50;;;23.60;45.20;24.00;101100.00;;;;5029410;28;20175;-46
2023/06/15 08:10:31;;;;;;;4.53;3.30;;;23.70;45.50;24.10;101103.00;;;;5029297;28;20171;-46
2023/06/15 08:12:57;;;;;;;4.47;3.63;;;23.70;45.30;24.10;101082.00;;;;5029838;28;20667;-47
2023/06/15 08:15:23;;;;;;;3.83;3.50;;;23.70;45.10;24.20;101105.00;;;;5028930;28;20199;-47
2023/06/15 08:17:49;;;;;;;3.80;3.40;;;23.70;45.10;24.10;101099.00;;;;5029024;28;20182;-47
2023/06/15 08:20:15;;;;;;;4.00;3.70;;;23.70;45.20;24.10;101096.00;;;;5029277;28;20174;-47
2023/06/15 08:22:41;;;;;;;3.80;3.50;;;23.60;45.10;24.20;101105.00;;;;5031685;28;20179;-47
2023/06/15 08:25:09;;;;;;;4.13;3.60;;;23.70;45.10;24.20;101086.00;;;;5029716;28;20190;-46
2023/06/15 08:27:35;;;;;;;3.30;3.07;;;23.80;44.80;24.20;101089.00;;;;5044321;28;20182;-46
2023/06/15 08:30:01;;;;;;;3.43;3.13;;;23.80;44.70;24.30;101089.00;;;;5028303;28;20179;-45
2023/06/15 08:32:26;;;;;;;3.50;3.20;;;23.80;44.40;24.30;101093.00;;;;5027675;28;20867;-46
2023/06/15 08:34:52;;;;;;;5.07;3.30;;;23.90;44.50;24.40;101088.00;;;;5043274;28;20195;-49
2023/06/15 08:37:18;;;;;;;4.33;3.50;;;23.90;44.60;24.40;101086.00;;;;5022147;28;20755;-49
2023/06/15 08:39:44;;;;;;;6.27;3.60;;;23.90;44.60;24.40;101084.00;;;;5025844;28;20171;-48
2023/06/15 08:42:10;;;;;;;6.30;3.63;;;24.00;44.60;24.50;101087.00;;;;5029078;28;20171;-49
2023/06/15 08:44:36;;;;;;;6.63;3.23;;;24.10;44.80;24.50;101091.00;;;;5028768;28;20206;-49
2023/06/15 08:47:03;;;;;;;3.60;3.30;;;24.10;44.70;24.50;101077.00;;;;5029381;28;20564;-50
2023/06/15 08:49:30;;;;;;;5.83;3.50;;;24.10;44.70;24.60;101081.00;;;;5029852;28;20178;-48
2023/06/15 08:51:57;;;;;;;4.97;3.40;;;24.10;44.90;24.60;101082.00;;;;5028262;28;20229;-49
2023/06/15 08:54:27;;;;;;;5.30;3.20;;;24.10;45.20;24.60;101077.00;;;;5027960;28;20254;-50
2023/06/15 08:56:56;;;;;;;5.07;3.30;;;24.10;45.00;24.60;101075.00;;;;5030416;28;20187;-49
2023/06/15 08:59:22;;;;;;;4.07;3.70;;;24.20;45.10;24.60;101080.00;;;;5033643;28;20178;-49
2023/06/15 09:01:48;;;;;;;4.10;3.07;;;24.20;45.10;24.70;101079.00;;;;5034975;28;20171;-49
2023/06/15 09:04:14;;;;;;;4.53;3.57;;;24.20;45.10;24.70;101066.00;;;;5038473;28;20163;-49
2023/06/15 09:06:40;;;;;;;3.47;3.17;;;24.20;45.00;24.70;101076.00;;;;5034664;28;20231;-49
2023/06/15 09:09:06;;;;;;;4.90;3.50;;;24.20;45.00;24.70;101079.00;;;;5017549;28;20218;-48
2023/06/15 09:11:39;;;;;;;4.67;3.10;;;24.30;45.10;24.80;101083.00;;;;5033164;28;20649;-50
2023/06/15 09:14:09;;;;;;;3.50;3.20;;;24.20;45.10;24.80;101081.00;;;;5034661;28;20269;-49
2023/06/15 09:16:35;;;;;;;3.40;3.10;;;24.20;45.10;24.80;101072.00;;;;5036437;28;20202;-49
2023/06/15 09:19:00;;;;;;;4.70;3.30;;;24.30;45.10;24.80;101078.00;;;;5047539;28;20285;-48
2023/06/15 09:21:28;;;;;;;4.67;3.00;;;24.30;45.30;24.80;101075.00;;;;5034716;28;20174;-50
2023/06/15 09:24:02;;;;;;;4.73;3.10;;;24.30;45.20;24.80;101075.00;;;;5032532;28;20664;-48
2023/06/15 09:26:28;;;;;;;3.23;2.93;;;24.30;45.20;24.80;101069.00;;;;5000146;28;20226;-50
2023/06/15 09:28:55;;;;;;;3.13;2.93;;;24.30;45.20;24.90;101064.00;;;;5048638;28;20646;-48
2023/06/15 09:31:31;;;;;;;3.40;3.10;;;24.40;45.20;24.90;101068.00;;;;5033451;28;20178;-49
2023/06/15 09:34:11;;;;;;;4.73;3.20;;;24.40;45.20;24.90;101065.00;;;;5033617;28;20181;-48
2023/06/15 09:36:40;;;;;;;3.63;3.33;;;24.40;45.30;24.90;101067.00;;;;5033004;28;20301;-48
2023/06/15 09:39:08;;;;;;;3.67;3.17;;;24.40;45.30;24.90;101069.00;;;;5033888;28;20171;-48
2023/06/15 09:41:35;;;;;;;3.17;2.87;;;24.40;45.30;24.90;101061.00;;;;5032106;28;20262;-49
2023/06/15 09:44:06;;;;;;;3.70;2.97;;;24.40;45.30;25.00;101060.00;;;;5032346;28;20629;-49
2023/06/15 09:46:31;;;;;;;3.53;3.00;;;24.40;45.30;25.00;101060.00;;;;5015716;28;20226;-50
2023/06/15 09:48:57;;;;;;;3.37;3.07;;;24.40;45.40;25.00;101063.00;;;;5032926;28;20246;-48
2023/06/15 09:51:28;;;;;;;4.23;3.10;;;24.50;45.50;25.00;101054.00;;;;5033021;28;20178;-50
2023/06/15 09:53:54;;;;;;;3.20;2.90;;;24.50;45.50;25.00;101059.00;;;;5033067;28;20553;-49
2023/06/15 09:56:21;;;;;;;4.40;3.00;;;24.50;45.60;25.10;101056.00;;;;4998659;28;20260;-47
2023/06/15 09:58:48;;;;;;;3.50;2.88;;;24.50;45.60;25.10;101061.00;;;;5032729;28;20211;-49
2023/06/15 10:01:14;;;;;;;3.25;2.97;;;24.50;45.70;25.10;101069.00;;;;5032631;28;20217;-48
2023/06/15 10:03:43;;;;;;;3.40;3.10;;;24.50;45.70;25.10;101072.00;;;;5031038;28;20194;-53
2023/06/15 10:06:13;;;;;;;3.30;3.00;;;24.50;45.70;25.10;101062.00;;;;5047139;28;20657;-50
2023/06/15 10:08:40;;;;;;;3.55;3.03;;;24.50;45.70;25.20;101060.00;;;;5030765;28;20258;-49
2023/06/15 10:11:06;;;;;;;3.30;3.00;;;24.60;45.70;25.20;101064.00;;;;5030984;28;20174;-49
2023/06/15 10:13:39;;;;;;;3.20;2.90;;;24.60;45.70;25.20;101057.00;;;;5030822;28;20175;-49
2023/06/15 10:16:05;;;;;;;3.13;2.93;;;24.60;45.80;25.20;101061.00;;;;5015247;28;20558;-49
2023/06/15 10:18:31;;;;;;;3.43;3.00;;;24.60;45.80;25.20;101049.00;;;;5031022;28;20179;-49
2023/06/15 10:20:58;;;;;;;3.20;2.95;;;24.60;45.90;25.20;101057.00;;;;4998681;28;20253;-50
2023/06/15 10:23:25;;;;;;;3.10;2.80;;;24.60;45.90;25.30;101060.00;;;;5030750;28;20175;-49
2023/06/15 10:25:55;;;;;;;3.20;2.90;;;24.70;46.00;25.30;101060.00;;;;5030477;28;20195;-49
2023/06/15 10:28:24;;;;;;;2.80;2.60;;;24.60;46.00;25.30;101044.00;;;;5030983;28;20655;-50
2023/06/15 10:31:07;;;;;;;3.27;2.80;;;24.70;46.00;25.30;101060.00;;;;5015055;28;20254;-49
2023/06/15 10:33:45;;;;;;;3.00;2.80;;;24.70;46.00;25.30;101045.00;;;;5016390;28;20179;-50
2023/06/15 10:36:24;;;;;;;3.25;2.95;;;24.70;46.00;25.30;101060.00;;;;5029808;28;20207;-48
2023/06/15 10:39:34;;;;;;;3.40;2.80;;;24.70;46.10;25.30;101063.00;;;;5032135;28;20174;-48
2023/06/15 10:42:10;;;;;;;3.42;3.00;;;24.70;46.00;25.40;101060.00;;;;5008375;28;20187;-50
2023/06/15 10:44:36;;;;;;;3.28;2.90;;;24.70;46.00;25.40;101072.00;;;;5023967;28;20629;-50
2023/06/15 10:47:15;;;;;;;3.20;2.97;;;24.70;46.00;25.40;101058.00;;;;5035135;28;20195;-49
2023/06/15 10:49:51;;;;;;;2.80;2.60;;;24.70;45.90;25.40;101058.00;;;;5033917;28;20273;-50